Time;durP1;ratioP1;P1;durP2;ratioP2;P2;SDS_P1;SDS_P2;PMS_P1;PMS_P2;Temp;Humidity;BMP_temperature;BMP_pressure;BME280_temperature;BME280_humidity;BME280_pressure;Samples;Min_cycle;Max_cycle;Signal;HPM_P1;HPM_P2
2022/08/19 00:01:35;;;;;;;12.93;11.63;;;;;;;;;;5016211;28;92389;-72
2022/08/19 00:04:04;;;;;;;15.35;13.55;;;;;;;;;;5016282;28;92415;-74
2022/08/19 00:06:30;;;;;;;15.80;13.65;;;;;;;;;;5016163;28;93500;-74
2022/08/19 00:08:57;;;;;;;15.73;14.02;;;;;;;;;;5007308;28;92437;-74
2022/08/19 00:11:25;;;;;;;17.98;15.68;;;;;;;;;;4996635;28;92958;-74
2022/08/19 00:13:52;;;;;;;15.63;14.07;;;;;;;;;;5003435;28;96589;-74
2022/08/19 00:16:20;;;;;;;17.00;13.18;;;;;;;;;;5009721;28;92456;-73
2022/08/19 00:18:52;;;;;;;14.85;13.50;;;;;;;;;;5000349;28;93580;-72
2022/08/19 00:21:18;;;;;;;15.52;14.00;;;;;;;;;;4999133;28;94157;-72
2022/08/19 00:23:44;;;;;;;14.93;13.27;;;;;;;;;;5008865;28;94150;-73
2022/08/19 00:26:11;;;;;;;17.33;14.45;;;;;;;;;;5015361;28;94714;-72
2022/08/19 00:28:37;;;;;;;12.80;11.55;;;;;;;;;;5001588;28;92394;-73
2022/08/19 00:31:04;;;;;;;13.70;12.50;;;;;;;;;;4996251;28;93163;-72
2022/08/19 00:33:32;;;;;;;13.13;11.85;;;;;;;;;;4995121;28;94353;-72
2022/08/19 00:35:59;;;;;;;17.65;12.73;;;;;;;;;;4995679;28;92406;-72
2022/08/19 00:38:26;;;;;;;14.57;12.27;;;;;;;;;;5009495;28;94854;-72
2022/08/19 00:41:04;;;;;;;12.82;11.52;;;;;;;;;;5007233;28;94185;-73
2022/08/19 00:43:31;;;;;;;13.32;12.00;;;;;;;;;;4999195;28;92431;-72
2022/08/19 00:45:58;;;;;;;13.05;11.73;;;;;;;;;;5002655;28;93174;-73
2022/08/19 00:48:25;;;;;;;13.73;11.90;;;;;;;;;;4994759;28;92927;-73
2022/08/19 00:50:52;;;;;;;14.55;13.15;;;;;;;;;;4995178;28;94521;-72
2022/08/19 00:53:21;;;;;;;14.32;13.02;;;;;;;;;;4998387;28;92426;-72
2022/08/19 00:55:49;;;;;;;15.95;14.18;;;;;;;;;;4974755;28;92234;-72
2022/08/19 00:58:18;;;;;;;16.20;14.23;;;;;;;;;;4975343;28;93250;-72
2022/08/19 01:00:46;;;;;;;17.50;15.10;;;;;;;;;;4974236;28;94290;-73
2022/08/19 01:03:14;;;;;;;15.50;13.88;;;;;;;;;;4996957;28;94788;-73
2022/08/19 01:05:45;;;;;;;16.85;14.63;;;;;;;;;;4994791;28;94026;-72
2022/08/19 01:08:13;;;;;;;15.05;12.65;;;;;;;;;;4994389;28;92464;-73
2022/08/19 01:10:59;;;;;;;15.50;13.90;;;;;;;;;;5009368;28;94115;-73
2022/08/19 01:13:31;;;;;;;15.32;13.82;;;;;;;;;;5014945;28;94638;-72
2022/08/19 01:16:16;;;;;;;18.77;15.02;;;;;;;;;;5008360;28;93560;-72
2022/08/19 01:18:42;;;;;;;22.52;16.70;;;;;;;;;;5006094;28;93911;-73
2022/08/19 01:21:15;;;;;;;18.30;16.50;;;;;;;;;;4995400;28;92432;-73
2022/08/19 01:23:44;;;;;;;;;;;;;;;;;;4994211;28;93297;-73
2022/08/19 01:26:12;;;;;;;26.95;19.02;;;;;;;;;;4997959;28;123161;-72
2022/08/19 01:28:39;;;;;;;20.75;18.38;;;;;;;;;;4993042;28;94890;-73
2022/08/19 01:31:11;;;;;;;20.10;17.67;;;;;;;;;;4993966;28;96327;-72
2022/08/19 01:33:54;;;;;;;21.25;17.95;;;;;;;;;;4994440;28;94588;-72
2022/08/19 01:36:23;;;;;;;21.05;18.85;;;;;;;;;;4993966;28;92453;-72
2022/08/19 01:38:49;;;;;;;20.58;17.85;;;;;;;;;;4988806;28;94179;-72
2022/08/19 01:41:16;;;;;;;22.08;17.52;;;;;;;;;;4994796;28;94086;-73
2022/08/19 01:43:43;;;;;;;21.13;18.75;;;;;;;;;;5001351;28;92574;-72
2022/08/19 01:46:30;;;;;;;21.08;18.73;;;;;;;;;;4998883;28;93076;-73
2022/08/19 01:48:56;;;;;;;19.65;16.83;;;;;;;;;;4999104;28;92530;-72
2022/08/19 01:51:23;;;;;;;25.67;18.27;;;;;;;;;;4995687;28;93028;-72
2022/08/19 01:53:50;;;;;;;19.90;16.67;;;;;;;;;;5024153;27;96622;-73
2022/08/19 01:56:18;;;;;;;20.80;16.98;;;;;;;;;;5007910;28;92428;-73
2022/08/19 01:58:50;;;;;;;17.58;15.68;;;;;;;;;;5007113;28;94027;-72
2022/08/19 02:01:17;;;;;;;19.10;17.05;;;;;;;;;;5008939;28;93242;-73
2022/08/19 02:03:43;;;;;;;22.63;15.95;;;;;;;;;;5014107;28;92496;-72
2022/08/19 02:06:10;;;;;;;16.83;15.13;;;;;;;;;;5005962;28;94421;-72
2022/08/19 02:08:37;;;;;;;17.65;15.73;;;;;;;;;;4993816;28;93100;-72
2022/08/19 02:11:04;;;;;;;16.45;14.95;;;;;;;;;;5009084;28;91749;-74
2022/08/19 02:13:31;;;;;;;19.92;17.88;;;;;;;;;;4993581;28;93901;-72
2022/08/19 02:15:57;;;;;;;17.52;15.80;;;;;;;;;;5002443;28;92652;-72
2022/08/19 02:18:26;;;;;;;19.98;15.27;;;;;;;;;;5005748;28;94917;-73
2022/08/19 02:20:53;;;;;;;16.27;14.77;;;;;;;;;;5003034;28;93172;-72
2022/08/19 02:23:19;;;;;;;17.02;15.15;;;;;;;;;;5010931;28;92438;-72
2022/08/19 02:25:46;;;;;;;15.88;13.30;;;;;;;;;;5012541;28;93063;-73
2022/08/19 02:28:13;;;;;;;15.38;13.93;;;;;;;;;;4994406;28;94251;-72
2022/08/19 02:30:44;;;;;;;17.00;13.23;;;;;;;;;;4996099;28;92523;-72
2022/08/19 02:33:10;;;;;;;14.75;13.38;;;;;;;;;;5010973;28;93920;-72
2022/08/19 02:35:36;;;;;;;15.70;12.65;;;;;;;;;;5014039;28;91648;-72
2022/08/19 02:40:52;;;;;;;14.05;12.55;;;;;;;;;;4992951;28;94342;-74
2022/08/19 02:43:20;;;;;;;14.18;12.68;;;;;;;;;;4995694;28;94877;-72
2022/08/19 02:45:48;;;;;;;12.32;11.27;;;;;;;;;;4999134;28;95428;-72
2022/08/19 02:48:17;;;;;;;11.80;10.52;;;;;;;;;;5005106;28;93465;-72
2022/08/19 02:50:51;;;;;;;13.32;10.75;;;;;;;;;;5013562;28;92364;-72
2022/08/19 02:53:19;;;;;;;12.00;10.52;;;;;;;;;;5003939;28;92864;-72
2022/08/19 02:55:45;;;;;;;11.50;10.43;;;;;;;;;;5009345;28;93389;-71
2022/08/19 02:58:13;;;;;;;15.48;12.63;;;;;;;;;;5013751;28;93853;-72
2022/08/19 03:00:43;;;;;;;14.27;11.77;;;;;;;;;;5004252;28;92648;-72
2022/08/19 03:03:09;;;;;;;11.75;10.55;;;;;;;;;;4997305;28;92313;-72
2022/08/19 03:05:36;;;;;;;11.73;10.55;;;;;;;;;;4998371;28;95439;-73
2022/08/19 03:08:22;;;;;;;10.05;9.15;;;;;;;;;;5001287;28;96766;-73
2022/08/19 03:10:48;;;;;;;10.27;9.38;;;;;;;;;;4997776;28;92446;-72
2022/08/19 03:13:16;;;;;;;11.15;9.93;;;;;;;;;;5008588;28;94207;-72
2022/08/19 03:15:43;;;;;;;12.43;10.75;;;;;;;;;;4996699;28;94041;-73
2022/08/19 03:18:10;;;;;;;14.15;10.70;;;;;;;;;;5003743;28;92929;-73
2022/08/19 03:20:45;;;;;;;15.13;11.93;;;;;;;;;;5004524;28;93495;-73
2022/08/19 03:23:12;;;;;;;13.15;11.70;;;;;;;;;;5004934;27;92622;-72
2022/08/19 03:25:41;;;;;;;19.23;12.35;;;;;;;;;;5004925;28;94268;-73
2022/08/19 03:28:08;;;;;;;14.63;11.85;;;;;;;;;;4998349;28;93310;-73
2022/08/19 03:30:34;;;;;;;13.45;11.68;;;;;;;;;;5005675;28;92459;-73
2022/08/19 03:33:01;;;;;;;16.80;11.35;;;;;;;;;;5011711;28;94964;-73
2022/08/19 03:35:30;;;;;;;13.60;11.77;;;;;;;;;;5006350;28;94093;-73
2022/08/19 03:37:58;;;;;;;21.65;13.30;;;;;;;;;;5001127;28;94730;-73
2022/08/19 03:40:25;;;;;;;17.95;12.90;;;;;;;;;;4991601;28;92456;-73
2022/08/19 03:42:51;;;;;;;13.43;11.75;;;;;;;;;;4992029;28;92467;-73
2022/08/19 03:45:21;;;;;;;17.85;11.40;;;;;;;;;;4993052;28;94169;-73
2022/08/19 03:47:48;;;;;;;14.48;11.77;;;;;;;;;;4997059;28;94151;-73
2022/08/19 03:50:14;;;;;;;14.00;11.52;;;;;;;;;;5011466;28;92146;-73
2022/08/19 03:52:41;;;;;;;14.45;11.05;;;;;;;;;;4999031;28;93472;-73
2022/08/19 03:55:12;;;;;;;19.67;11.73;;;;;;;;;;5015980;28;93215;-73
2022/08/19 03:57:38;;;;;;;15.48;11.20;;;;;;;;;;5013452;28;94846;-74
2022/08/19 04:00:06;;;;;;;12.73;10.43;;;;;;;;;;5004938;28;95574;-72
2022/08/19 04:02:39;;;;;;;14.07;11.18;;;;;;;;;;4996066;28;92301;-73
2022/08/19 04:05:07;;;;;;;11.20;10.13;;;;;;;;;;4995595;28;93913;-73
2022/08/19 04:07:34;;;;;;;14.70;11.10;;;;;;;;;;4995960;28;93641;-73
2022/08/19 04:10:00;;;;;;;15.32;12.77;;;;;;;;;;5010641;28;94998;-73
2022/08/19 04:12:27;;;;;;;21.58;16.02;;;;;;;;;;5008186;28;93197;-73
2022/08/19 04:14:53;;;;;;;25.88;17.33;;;;;;;;;;5015956;28;92511;-73
2022/08/19 04:17:20;;;;;;;24.08;16.33;;;;;;;;;;5016214;28;92635;-73
2022/08/19 04:19:46;;;;;;;25.52;15.57;;;;;;;;;;5014952;28;92981;-73
2022/08/19 04:22:12;;;;;;;20.48;13.77;;;;;;;;;;5017104;28;96537;-73
2022/08/19 04:24:39;;;;;;;20.60;14.68;;;;;;;;;;5014905;28;95488;-73
2022/08/19 04:27:05;;;;;;;26.77;14.25;;;;;;;;;;4997404;28;92395;-73
2022/08/19 04:29:32;;;;;;;18.45;13.50;;;;;;;;;;4995866;28;92442;-73
2022/08/19 04:31:59;;;;;;;15.93;13.60;;;;;;;;;;4995233;28;94009;-73
2022/08/19 04:34:34;;;;;;;19.88;12.57;;;;;;;;;;5002068;28;93413;-73
2022/08/19 04:37:00;;;;;;;14.75;13.20;;;;;;;;;;5002897;28;92474;-73
2022/08/19 04:44:59;;;;;;;13.38;11.60;;;;;;;;;;4999402;28;92479;-73
2022/08/19 04:47:26;;;;;;;12.27;11.05;;;;;;;;;;4994896;28;96308;-73
2022/08/19 04:50:13;;;;;;;11.60;10.43;;;;;;;;;;4995502;28;92470;-73
2022/08/19 04:52:42;;;;;;;11.10;10.02;;;;;;;;;;4995073;28;93939;-73
2022/08/19 04:55:10;;;;;;;11.77;10.57;;;;;;;;;;4995111;28;94511;-73
2022/08/19 04:57:39;;;;;;;11.70;10.60;;;;;;;;;;5008186;28;92538;-73
2022/08/19 05:00:07;;;;;;;12.70;10.23;;;;;;;;;;4995945;28;94382;-73
2022/08/19 05:02:34;;;;;;;12.65;11.35;;;;;;;;;;4993973;28;95494;-73
2022/08/19 05:05:00;;;;;;;19.55;13.65;;;;;;;;;;4994790;28;91927;-73
2022/08/19 05:07:27;;;;;;;16.05;13.52;;;;;;;;;;4996537;28;93650;-73
2022/08/19 05:09:53;;;;;;;10.82;9.57;;;;;;;;;;4988334;28;93004;-70
2022/08/19 05:12:24;;;;;;;10.05;7.30;;;;;;;;;;4975851;28;95074;-71
2022/08/19 05:14:56;;;;;;;8.18;7.47;;;;;;;;;;4975189;28;92525;-69
2022/08/19 05:17:22;;;;;;;7.05;6.00;;;;;;;;;;4976498;28;93866;-69
2022/08/19 05:22:39;;;;;;;8.13;7.28;;;;;;;;;;4974211;28;95001;-69
2022/08/19 05:25:11;;;;;;;7.90;7.15;;;;;;;;;;4977012;28;92551;-69
2022/08/19 05:27:39;;;;;;;7.38;6.68;;;;;;;;;;4982596;28;93780;-69
2022/08/19 05:30:06;;;;;;;10.63;9.63;;;;;;;;;;4980984;28;92610;-69
2022/08/19 05:32:32;;;;;;;9.73;8.98;;;;;;;;;;4978610;28;92629;-69
2022/08/19 05:34:59;;;;;;;12.48;9.60;;;;;;;;;;4980261;28;94065;-69
2022/08/19 05:37:27;;;;;;;10.00;8.98;;;;;;;;;;4992723;28;95964;-69
2022/08/19 05:39:54;;;;;;;10.93;9.90;;;;;;;;;;4989620;28;95402;-69
2022/08/19 05:42:22;;;;;;;12.27;11.00;;;;;;;;;;4990354;28;94214;-69
2022/08/19 05:44:49;;;;;;;13.73;10.15;;;;;;;;;;4974444;28;92668;-69
2022/08/19 05:47:16;;;;;;;19.17;14.73;;;;;;;;;;4976353;28;93002;-69
2022/08/19 05:49:42;;;;;;;17.02;15.25;;;;;;;;;;4977061;28;93664;-69
2022/08/19 05:52:11;;;;;;;14.00;12.63;;;;;;;;;;4974527;28;94306;-69
2022/08/19 05:54:40;;;;;;;20.40;15.98;;;;;;;;;;4978541;28;93635;-69
2022/08/19 05:57:06;;;;;;;16.60;12.95;;;;;;;;;;4986562;28;93137;-69
2022/08/19 05:59:35;;;;;;;23.10;18.67;;;;;;;;;;4981845;28;92500;-69
2022/08/19 06:02:04;;;;;;;26.75;20.98;;;;;;;;;;4982335;28;96972;-69
2022/08/19 06:04:31;;;;;;;36.70;25.45;;;;;;;;;;4973444;28;92540;-69
2022/08/19 06:06:58;;;;;;;26.75;21.02;;;;;;;;;;4974930;28;94113;-69
2022/08/19 06:09:24;;;;;;;30.90;24.48;;;;;;;;;;4976395;28;92493;-69
2022/08/19 06:11:53;;;;;;;41.30;29.50;;;;;;;;;;4995293;28;92466;-69
2022/08/19 06:14:23;;;;;;;43.13;29.83;;;;;;;;;;4975479;28;94170;-69
2022/08/19 06:16:53;;;;;;;48.22;32.75;;;;;;;;;;4980364;28;92459;-69
2022/08/19 06:19:20;;;;;;;47.88;32.20;;;;;;;;;;4973547;28;93410;-68
2022/08/19 06:21:48;;;;;;;44.03;33.88;;;;;;;;;;4973808;28;94297;-68
2022/08/19 06:24:16;;;;;;;51.15;37.78;;;;;;;;;;4973901;28;92464;-68
2022/08/19 06:26:43;;;;;;;53.45;37.53;;;;;;;;;;4975853;28;94914;-69
2022/08/19 06:29:10;;;;;;;47.70;34.50;;;;;;;;;;4973983;28;93441;-69
2022/08/19 06:31:51;;;;;;;55.75;37.83;;;;;;;;;;4972171;28;94284;-69
2022/08/19 06:34:17;;;;;;;43.42;33.88;;;;;;;;;;4977604;28;93231;-69
2022/08/19 06:36:45;;;;;;;54.00;38.13;;;;;;;;;;4973763;28;92363;-70
2022/08/19 06:39:13;;;;;;;53.88;36.67;;;;;;;;;;4973128;28;93235;-72
2022/08/19 06:41:41;;;;;;;52.80;37.05;;;;;;;;;;4973224;28;94243;-72
2022/08/19 06:44:18;;;;;;;52.20;35.50;;;;;;;;;;4992828;28;91916;-72
2022/08/19 06:46:45;;;;;;;47.80;34.10;;;;;;;;;;4992604;28;93286;-72
2022/08/19 06:49:20;;;;;;;45.13;33.40;;;;;;;;;;4979781;28;93407;-72
2022/08/19 06:51:50;;;;;;;40.10;28.48;;;;;;;;;;4972066;28;94773;-72
2022/08/19 06:54:17;;;;;;;37.58;28.13;;;;;;;;;;4975271;28;95404;-71
2022/08/19 06:56:45;;;;;;;47.40;34.30;;;;;;;;;;4986644;28;93054;-72
2022/08/19 06:59:16;;;;;;;50.60;35.90;;;;;;;;;;4974000;28;93085;-72
2022/08/19 07:01:45;;;;;;;52.17;36.15;;;;;;;;;;4977410;28;93587;-72
2022/08/19 07:04:12;;;;;;;56.92;37.60;;;;;;;;;;4985395;28;92403;-72
2022/08/19 07:06:40;;;;;;;59.22;39.55;;;;;;;;;;4972406;28;93881;-72
2022/08/19 07:09:11;;;;;;;74.35;41.28;;;;;;;;;;4980969;28;92629;-72
2022/08/19 07:11:37;;;;;;;66.82;41.58;;;;;;;;;;4973578;28;92407;-72
2022/08/19 07:14:06;;;;;;;73.97;42.47;;;;;;;;;;4979364;28;93894;-72
2022/08/19 07:16:45;;;;;;;69.63;42.38;;;;;;;;;;4971954;28;96432;-72
2022/08/19 07:19:12;;;;;;;72.20;42.33;;;;;;;;;;4990073;28;92345;-72
2022/08/19 07:21:43;;;;;;;68.72;42.67;;;;;;;;;;4979631;28;94342;-72
2022/08/19 07:24:10;;;;;;;70.00;42.30;;;;;;;;;;4995594;28;93323;-72
2022/08/19 07:26:38;;;;;;;66.78;42.20;;;;;;;;;;4992023;28;93974;-72
2022/08/19 07:29:07;;;;;;;54.67;30.05;;;;;;;;;;4976205;28;94185;-74
2022/08/19 07:31:36;;;;;;;52.22;33.67;;;;;;;;;;4977861;28;92454;-72
2022/08/19 07:34:06;;;;;;;68.82;43.65;;;;;;;;;;4977708;28;94079;-72
2022/08/19 07:36:34;;;;;;;69.90;41.90;;;;;;;;;;4977356;28;94233;-72
2022/08/19 07:39:03;;;;;;;64.03;42.35;;;;;;;;;;4997437;28;92860;-72
2022/08/19 07:41:31;;;;;;;67.85;42.63;;;;;;;;;;4993680;28;97350;-72
2022/08/19 07:43:58;;;;;;;62.28;41.38;;;;;;;;;;4994962;28;93591;-72
2022/08/19 07:46:26;;;;;;;62.45;42.40;;;;;;;;;;4995108;28;94229;-72
2022/08/19 07:48:52;;;;;;;62.70;41.72;;;;;;;;;;4995161;28;93647;-72
2022/08/19 07:51:20;;;;;;;58.35;40.13;;;;;;;;;;4996531;28;92995;-72
2022/08/19 07:54:02;;;;;;;58.40;39.58;;;;;;;;;;4980517;28;92982;-72
2022/08/19 07:56:28;;;;;;;57.00;38.20;;;;;;;;;;4975678;28;94318;-72
2022/08/19 07:58:55;;;;;;;55.30;40.03;;;;;;;;;;4976326;28;91754;-72
2022/08/19 08:01:27;;;;;;;59.83;39.37;;;;;;;;;;4979417;28;93292;-73
2022/08/19 08:09:26;;;;;;;48.63;35.63;;;;;;;;;;4982031;28;93394;-72
2022/08/19 08:12:06;;;;;;;48.42;35.33;;;;;;;;;;4975372;28;92606;-73
2022/08/19 08:14:54;;;;;;;48.22;33.95;;;;;;;;;;4976133;28;93287;-72
2022/08/19 08:17:22;;;;;;;45.00;34.40;;;;;;;;;;4975635;28;94168;-72
2022/08/19 08:20:09;;;;;;;43.15;32.85;;;;;;;;;;4978985;28;92440;-73
2022/08/19 08:25:22;;;;;;;46.15;31.67;;;;;;;;;;4978794;28;93445;-73
2022/08/19 08:27:49;;;;;;;48.63;32.05;;;;;;;;;;4975757;28;93162;-72
2022/08/19 08:30:22;;;;;;;43.97;31.17;;;;;;;;;;4975995;28;95319;-73
2022/08/19 08:32:49;;;;;;;41.08;31.83;;;;;;;;;;4987145;28;96184;-73
2022/08/19 08:35:17;;;;;;;44.88;30.10;;;;;;;;;;4980138;28;96286;-73
2022/08/19 08:37:44;;;;;;;43.65;29.85;;;;;;;;;;4975290;28;94255;-73
2022/08/19 08:40:18;;;;;;;39.92;28.58;;;;;;;;;;4991233;28;92602;-72
2022/08/19 08:42:50;;;;;;;37.15;28.40;;;;;;;;;;4991124;28;94017;-72
2022/08/19 08:45:17;;;;;;;39.40;27.17;;;;;;;;;;4975085;28;93266;-72
2022/08/19 08:47:49;;;;;;;41.80;28.90;;;;;;;;;;4977906;28;92435;-72
2022/08/19 08:50:22;;;;;;;34.38;25.75;;;;;;;;;;4976562;28;92156;-72
2022/08/19 08:52:53;;;;;;;35.67;25.85;;;;;;;;;;4974806;28;92412;-73
2022/08/19 08:55:22;;;;;;;29.70;24.77;;;;;;;;;;4990365;28;93916;-72
2022/08/19 08:57:48;;;;;;;34.15;24.80;;;;;;;;;;4985667;28;96558;-72
2022/08/19 09:00:17;;;;;;;27.85;24.02;;;;;;;;;;4974893;28;92751;-72
2022/08/19 09:02:44;;;;;;;29.75;22.08;;;;;;;;;;4975023;28;93198;-70
2022/08/19 09:05:17;;;;;;;32.58;23.67;;;;;;;;;;4975470;28;93058;-73
2022/08/19 09:08:06;;;;;;;33.65;24.13;;;;;;;;;;4974120;28;93045;-75
2022/08/19 09:10:42;;;;;;;33.90;24.33;;;;;;;;;;4991221;28;93789;-75
2022/08/19 09:13:13;;;;;;;30.48;21.30;;;;;;;;;;4974541;28;92673;-75
2022/08/19 09:15:44;;;;;;;30.75;21.88;;;;;;;;;;4979671;28;94066;-74
2022/08/19 09:18:13;;;;;;;32.03;21.95;;;;;;;;;;4974866;28;93398;-74
2022/08/19 09:20:44;;;;;;;29.50;21.58;;;;;;;;;;4986353;28;92388;-74
2022/08/19 09:23:11;;;;;;;33.78;22.38;;;;;;;;;;4978712;28;94833;-75
2022/08/19 09:25:40;;;;;;;27.08;20.40;;;;;;;;;;4975109;28;93306;-75
2022/08/19 09:28:06;;;;;;;25.85;19.92;;;;;;;;;;4974457;28;92482;-75
2022/08/19 09:30:48;;;;;;;28.90;21.83;;;;;;;;;;4977836;28;94961;-75
2022/08/19 09:33:16;;;;;;;28.13;21.60;;;;;;;;;;4975599;28;92358;-74
2022/08/19 09:35:42;;;;;;;26.85;19.67;;;;;;;;;;4973716;28;94202;-74
2022/08/19 09:38:18;;;;;;;28.40;18.83;;;;;;;;;;4974852;28;94177;-74
2022/08/19 09:40:44;;;;;;;29.38;19.05;;;;;;;;;;4975010;28;91705;-74
2022/08/19 09:43:11;;;;;;;21.05;17.02;;;;;;;;;;4974063;28;93581;-74
2022/08/19 09:45:38;;;;;;;23.73;15.93;;;;;;;;;;4974144;28;94201;-74
2022/08/19 09:48:05;;;;;;;25.85;16.48;;;;;;;;;;4971947;28;95756;-74
2022/08/19 09:50:33;;;;;;;22.60;16.70;;;;;;;;;;4974404;28;96447;-75
2022/08/19 09:53:00;;;;;;;23.85;17.17;;;;;;;;;;4977633;28;95218;-75
2022/08/19 09:55:27;;;;;;;24.35;17.10;;;;;;;;;;4974080;28;94007;-74
2022/08/19 09:58:01;;;;;;;22.25;15.88;;;;;;;;;;4974536;28;93284;-75
2022/08/19 10:00:28;;;;;;;16.58;14.88;;;;;;;;;;4974951;28;92293;-74
2022/08/19 10:02:54;;;;;;;19.25;15.90;;;;;;;;;;4983127;28;94086;-74
2022/08/19 10:08:08;;;;;;;23.40;15.75;;;;;;;;;;4994816;28;92493;-74
2022/08/19 10:10:40;;;;;;;20.23;14.90;;;;;;;;;;4973444;28;94137;-74
2022/08/19 10:13:08;;;;;;;15.52;13.48;;;;;;;;;;4973720;28;95802;-73
2022/08/19 10:15:35;;;;;;;15.80;13.43;;;;;;;;;;4978467;28;93822;-72
2022/08/19 10:18:13;;;;;;;18.92;14.88;;;;;;;;;;4972703;28;94192;-73
2022/08/19 10:20:41;;;;;;;20.63;13.90;;;;;;;;;;4973556;28;92453;-72
2022/08/19 10:23:08;;;;;;;18.23;12.90;;;;;;;;;;4976836;28;94099;-73
2022/08/19 10:25:35;;;;;;;14.43;12.40;;;;;;;;;;4977384;28;95115;-73
2022/08/19 10:28:04;;;;;;;20.40;11.43;;;;;;;;;;4981471;28;92552;-72
2022/08/19 10:30:36;;;;;;;20.50;13.85;;;;;;;;;;4977826;28;93976;-73
2022/08/19 10:33:03;;;;;;;20.25;13.32;;;;;;;;;;4978943;28;92949;-73
2022/08/19 10:35:37;;;;;;;16.33;13.57;;;;;;;;;;4978939;28;93344;-72
2022/08/19 10:38:22;;;;;;;20.63;14.43;;;;;;;;;;4979318;28;95599;-72
2022/08/19 10:40:57;;;;;;;19.35;14.30;;;;;;;;;;4980211;28;93545;-72
2022/08/19 10:43:24;;;;;;;22.73;13.55;;;;;;;;;;4995571;28;94061;-72
2022/08/19 10:45:58;;;;;;;17.40;14.23;;;;;;;;;;4981330;28;94255;-72
2022/08/19 10:48:25;;;;;;;15.85;12.82;;;;;;;;;;4991477;28;94138;-71
2022/08/19 10:53:48;;;;;;;18.77;14.98;;;;;;;;;;4992565;28;93601;-72
2022/08/19 10:58:59;;;;;;;24.60;15.25;;;;;;;;;;4994300;28;92685;-72
2022/08/19 11:01:26;;;;;;;18.52;14.38;;;;;;;;;;4980275;28;93251;-72
2022/08/19 11:03:53;;;;;;;17.88;14.68;;;;;;;;;;4975675;28;94701;-72
2022/08/19 11:06:20;;;;;;;20.83;14.88;;;;;;;;;;4982799;28;94204;-72
2022/08/19 11:08:46;;;;;;;24.50;14.00;;;;;;;;;;4995036;28;92474;-72
2022/08/19 11:11:13;;;;;;;18.20;14.10;;;;;;;;;;4993601;28;94390;-72
2022/08/19 11:13:40;;;;;;;18.05;14.55;;;;;;;;;;4995726;28;94182;-71
2022/08/19 11:16:08;;;;;;;17.02;13.32;;;;;;;;;;4982312;28;92505;-72
2022/08/19 11:18:38;;;;;;;21.27;15.23;;;;;;;;;;4976991;28;92320;-72
2022/08/19 11:21:34;;;;;;;24.50;16.67;;;;;;;;;;4985713;28;93529;-72
2022/08/19 11:24:02;;;;;;;21.42;16.63;;;;;;;;;;4976128;28;93409;-72
2022/08/19 11:26:29;;;;;;;20.15;15.70;;;;;;;;;;4977307;28;94306;-72
2022/08/19 11:28:56;;;;;;;17.92;15.75;;;;;;;;;;4974335;28;95373;-72
2022/08/19 11:31:25;;;;;;;25.42;16.20;;;;;;;;;;4977264;28;95625;-72
2022/08/19 11:33:55;;;;;;;19.77;13.60;;;;;;;;;;4975639;28;94208;-72
2022/08/19 11:36:22;;;;;;;18.20;16.15;;;;;;;;;;4981525;28;92521;-73
2022/08/19 11:38:49;;;;;;;19.88;16.08;;;;;;;;;;4983762;28;93327;-72
2022/08/19 11:41:16;;;;;;;26.17;18.67;;;;;;;;;;4995776;28;93342;-72
2022/08/19 11:43:43;;;;;;;24.33;16.02;;;;;;;;;;4998685;28;92475;-73
2022/08/19 11:46:10;;;;;;;16.92;14.63;;;;;;;;;;4986408;28;92701;-72
2022/08/19 11:48:37;;;;;;;18.23;13.93;;;;;;;;;;4976048;28;94481;-72
2022/08/19 11:51:08;;;;;;;17.25;15.40;;;;;;;;;;4980239;28;93958;-72
2022/08/19 11:53:35;;;;;;;18.20;15.63;;;;;;;;;;4983343;28;96598;-73
2022/08/19 11:56:02;;;;;;;19.10;14.02;;;;;;;;;;4982747;28;92483;-73
2022/08/19 11:58:29;;;;;;;22.17;16.25;;;;;;;;;;4990793;28;92481;-73
2022/08/19 12:00:55;;;;;;;23.20;17.10;;;;;;;;;;4986659;28;94739;-73
2022/08/19 12:03:21;;;;;;;27.52;18.95;;;;;;;;;;4978766;28;92760;-73
2022/08/19 12:05:49;;;;;;;21.02;15.90;;;;;;;;;;4988944;28;93339;-72
2022/08/19 12:08:16;;;;;;;22.30;17.10;;;;;;;;;;4986859;28;92547;-72
2022/08/19 12:10:42;;;;;;;23.98;17.30;;;;;;;;;;4990094;28;95354;-72
2022/08/19 12:13:09;;;;;;;30.23;18.08;;;;;;;;;;4988977;28;93230;-72
2022/08/19 12:15:37;;;;;;;19.75;17.00;;;;;;;;;;4992024;28;92892;-72
2022/08/19 12:18:04;;;;;;;23.13;17.15;;;;;;;;;;4991098;28;95562;-73
2022/08/19 12:20:33;;;;;;;23.17;16.45;;;;;;;;;;4986008;28;93357;-72
2022/08/19 12:23:02;;;;;;;23.87;17.37;;;;;;;;;;4994050;28;92541;-72
2022/08/19 12:25:28;;;;;;;22.55;17.30;;;;;;;;;;4979931;28;93941;-73
2022/08/19 12:27:55;;;;;;;23.42;16.88;;;;;;;;;;4988608;28;94109;-72
2022/08/19 12:30:23;;;;;;;20.58;16.20;;;;;;;;;;4997230;28;93181;-72
2022/08/19 12:32:50;;;;;;;29.75;19.58;;;;;;;;;;4994242;28;93348;-72
2022/08/19 12:35:19;;;;;;;26.23;22.13;;;;;;;;;;5003115;28;91759;-71
2022/08/19 12:37:47;;;;;;;24.60;21.15;;;;;;;;;;4976296;28;93854;-72
2022/08/19 12:40:24;;;;;;;18.55;15.23;;;;;;;;;;4977659;28;94339;-72
2022/08/19 12:42:53;;;;;;;18.70;15.77;;;;;;;;;;4983025;28;94931;-72
2022/08/19 12:45:19;;;;;;;20.33;15.98;;;;;;;;;;4975515;28;94436;-72
2022/08/19 12:47:46;;;;;;;14.68;11.68;;;;;;;;;;4973938;28;94366;-72
2022/08/19 12:50:13;;;;;;;14.32;12.00;;;;;;;;;;4978249;28;92357;-72
2022/08/19 12:52:41;;;;;;;18.23;12.48;;;;;;;;;;4974297;28;93797;-72
2022/08/19 12:55:08;;;;;;;15.55;13.10;;;;;;;;;;4981543;28;92629;-72
2022/08/19 12:57:35;;;;;;;21.23;13.65;;;;;;;;;;4980304;28;94324;-73
2022/08/19 13:00:08;;;;;;;20.92;14.05;;;;;;;;;;4975900;28;92370;-73
2022/08/19 13:02:35;;;;;;;;;;;;;;;;;;4975087;28;92768;-73
2022/08/19 13:05:04;;;;;;;12.27;11.10;;;;;;;;;;4976483;28;122564;-73
2022/08/19 13:07:32;;;;;;;10.45;9.45;;;;;;;;;;4989409;28;95624;-72
2022/08/19 13:09:58;;;;;;;11.25;10.00;;;;;;;;;;4990450;28;92481;-72
2022/08/19 13:12:26;;;;;;;14.70;10.27;;;;;;;;;;4995613;28;93557;-72
2022/08/19 13:14:53;;;;;;;13.18;9.93;;;;;;;;;;4991489;28;92636;-72
2022/08/19 13:17:20;;;;;;;10.70;9.40;;;;;;;;;;4989453;28;93803;-73
2022/08/19 13:19:46;;;;;;;15.18;11.50;;;;;;;;;;4975224;28;93440;-73
2022/08/19 13:22:12;;;;;;;13.82;10.63;;;;;;;;;;4985414;28;93121;-72
2022/08/19 13:24:41;;;;;;;12.27;10.70;;;;;;;;;;4988174;28;93166;-72
2022/08/19 13:27:12;;;;;;;14.23;12.73;;;;;;;;;;4989576;28;94007;-73
2022/08/19 13:35:10;;;;;;;16.90;13.73;;;;;;;;;;5000168;28;93920;-72
2022/08/19 13:37:42;;;;;;;19.50;15.02;;;;;;;;;;4993113;28;93948;-72
2022/08/19 13:40:12;;;;;;;17.17;15.10;;;;;;;;;;4994741;28;94162;-72
2022/08/19 13:42:39;;;;;;;17.23;14.95;;;;;;;;;;4982310;28;94300;-72
2022/08/19 13:45:06;;;;;;;19.90;15.55;;;;;;;;;;4992135;28;93986;-73
2022/08/19 13:47:42;;;;;;;22.70;15.75;;;;;;;;;;4993651;28;94265;-72
2022/08/19 13:50:10;;;;;;;18.02;15.93;;;;;;;;;;4984851;28;91619;-73
2022/08/19 13:52:38;;;;;;;18.08;15.55;;;;;;;;;;4994056;28;93667;-73
2022/08/19 13:55:05;;;;;;;22.70;16.63;;;;;;;;;;4975614;28;93897;-72
2022/08/19 13:57:31;;;;;;;17.35;13.88;;;;;;;;;;4991493;28;95761;-72
2022/08/19 13:59:58;;;;;;;21.17;16.08;;;;;;;;;;4991250;28;94182;-73
2022/08/19 14:02:24;;;;;;;16.15;14.00;;;;;;;;;;4975199;28;95431;-72
2022/08/19 14:04:51;;;;;;;20.50;12.65;;;;;;;;;;4963243;28;94129;-72
2022/08/19 14:07:17;;;;;;;18.77;11.95;;;;;;;;;;4964043;28;93484;-73
2022/08/19 14:09:43;;;;;;;18.88;11.95;;;;;;;;;;4958055;28;94126;-73
2022/08/19 14:12:12;;;;;;;13.73;11.90;;;;;;;;;;4968147;28;94281;-73
2022/08/19 14:14:40;;;;;;;14.13;11.23;;;;;;;;;;4983947;28;92420;-73
2022/08/19 14:17:07;;;;;;;14.40;11.57;;;;;;;;;;4988277;28;94618;-72
2022/08/19 14:19:33;;;;;;;13.18;10.77;;;;;;;;;;4987638;28;93178;-72
2022/08/19 14:21:59;;;;;;;18.52;11.02;;;;;;;;;;4990780;28;96495;-72
2022/08/19 14:24:26;;;;;;;14.20;11.23;;;;;;;;;;4980044;28;95515;-72
2022/08/19 14:26:53;;;;;;;18.02;11.05;;;;;;;;;;4982112;28;94233;-72
2022/08/19 14:29:19;;;;;;;10.23;8.77;;;;;;;;;;4980738;28;92482;-72
2022/08/19 14:31:46;;;;;;;11.20;9.65;;;;;;;;;;4990486;28;93270;-72
2022/08/19 14:34:12;;;;;;;15.65;9.85;;;;;;;;;;4986511;28;93440;-72
2022/08/19 14:36:38;;;;;;;10.63;9.60;;;;;;;;;;4986154;28;92596;-72
2022/08/19 14:39:05;;;;;;;13.25;8.25;;;;;;;;;;4993763;28;93617;-72
2022/08/19 14:41:33;;;;;;;12.27;9.10;;;;;;;;;;4989626;28;92776;-72
2022/08/19 14:44:01;;;;;;;8.82;7.68;;;;;;;;;;4974603;28;94519;-72
2022/08/19 14:46:28;;;;;;;9.65;8.68;;;;;;;;;;4976148;28;97784;-73
2022/08/19 14:48:55;;;;;;;8.77;7.50;;;;;;;;;;4973736;28;93101;-73
2022/08/19 14:51:22;;;;;;;8.30;6.57;;;;;;;;;;4990151;28;94165;-73
2022/08/19 14:53:49;;;;;;;9.85;8.43;;;;;;;;;;4976709;28;94645;-74
2022/08/19 14:56:17;;;;;;;12.40;7.20;;;;;;;;;;4982037;28;92450;-73
2022/08/19 14:58:44;;;;;;;7.57;6.88;;;;;;;;;;4986780;28;93974;-73
2022/08/19 15:01:11;;;;;;;7.30;6.60;;;;;;;;;;4982543;28;94152;-73